sensor_id;sensor_type;location;lat;lon;timestamp;P1;durP1;ratioP1;P2;durP2;ratioP2
39740;SDS011;25426;53.478;10.190;2023-04-03T00:00:41;5.00;;;2.97;;
39740;SDS011;25426;53.478;10.190;2023-04-03T00:03:12;7.17;;;3.80;;
39740;SDS011;25426;53.478;10.190;2023-04-03T00:05:43;10.70;;;3.90;;
39740;SDS011;25426;53.478;10.190;2023-04-03T00:08:14;11.57;;;3.43;;
39740;SDS011;25426;53.478;10.190;2023-04-03T00:10:45;7.47;;;3.57;;
39740;SDS011;25426;53.478;10.190;2023-04-03T00:13:17;8.07;;;3.67;;
39740;SDS011;25426;53.478;10.190;2023-04-03T00:15:48;6.53;;;3.40;;
39740;SDS011;25426;53.478;10.190;2023-04-03T00:18:19;7.63;;;3.53;;
39740;SDS011;25426;53.478;10.190;2023-04-03T00:20:50;7.77;;;3.77;;
39740;SDS011;25426;53.478;10.190;2023-04-03T00:23:21;9.13;;;4.00;;
39740;SDS011;25426;53.478;10.190;2023-04-03T00:25:53;4.33;;;3.30;;
39740;SDS011;25426;53.478;10.190;2023-04-03T00:28:25;9.70;;;3.30;;
39740;SDS011;25426;53.478;10.190;2023-04-03T00:30:56;8.93;;;3.60;;
39740;SDS011;25426;53.478;10.190;2023-04-03T00:33:27;5.80;;;2.83;;
39740;SDS011;25426;53.478;10.190;2023-04-03T00:35:59;9.57;;;3.73;;
39740;SDS011;25426;53.478;10.190;2023-04-03T00:38:34;10.13;;;3.93;;
39740;SDS011;25426;53.478;10.190;2023-04-03T00:41:06;15.50;;;3.83;;
39740;SDS011;25426;53.478;10.190;2023-04-03T00:43:37;6.43;;;3.53;;
39740;SDS011;25426;53.478;10.190;2023-04-03T00:46:08;8.50;;;3.70;;
39740;SDS011;25426;53.478;10.190;2023-04-03T00:51:17;6.33;;;4.37;;
39740;SDS011;25426;53.478;10.190;2023-04-03T00:53:55;7.77;;;3.57;;
39740;SDS011;25426;53.478;10.190;2023-04-03T00:56:30;8.07;;;4.17;;
39740;SDS011;25426;53.478;10.190;2023-04-03T00:59:10;16.50;;;4.00;;
39740;SDS011;25426;53.478;10.190;2023-04-03T01:01:47;8.70;;;3.90;;
39740;SDS011;25426;53.478;10.190;2023-04-03T01:04:26;10.57;;;4.00;;
39740;SDS011;25426;53.478;10.190;2023-04-03T01:07:11;10.43;;;3.90;;
39740;SDS011;25426;53.478;10.190;2023-04-03T01:09:49;6.83;;;3.33;;
39740;SDS011;25426;53.478;10.190;2023-04-03T01:12:27;13.43;;;5.00;;
39740;SDS011;25426;53.478;10.190;2023-04-03T01:17:47;7.83;;;3.57;;
39740;SDS011;25426;53.478;10.190;2023-04-03T01:25:46;6.20;;;3.50;;
39740;SDS011;25426;53.478;10.190;2023-04-03T01:28:24;11.77;;;3.73;;
39740;SDS011;25426;53.478;10.190;2023-04-03T01:31:08;8.73;;;3.70;;
39740;SDS011;25426;53.478;10.190;2023-04-03T01:34:04;7.50;;;3.53;;
39740;SDS011;25426;53.478;10.190;2023-04-03T01:36:36;8.07;;;3.30;;
39740;SDS011;25426;53.478;10.190;2023-04-03T01:39:07;8.17;;;3.80;;
39740;SDS011;25426;53.478;10.190;2023-04-03T01:41:38;9.90;;;3.50;;
39740;SDS011;25426;53.478;10.190;2023-04-03T01:44:17;13.40;;;4.00;;
39740;SDS011;25426;53.478;10.190;2023-04-03T01:46:49;8.67;;;3.50;;
39740;SDS011;25426;53.478;10.190;2023-04-03T01:49:20;6.60;;;3.27;;
39740;SDS011;25426;53.478;10.190;2023-04-03T01:51:51;7.80;;;3.60;;
39740;SDS011;25426;53.478;10.190;2023-04-03T01:54:22;7.30;;;3.13;;
39740;SDS011;25426;53.478;10.190;2023-04-03T01:56:53;7.30;;;3.80;;
39740;SDS011;25426;53.478;10.190;2023-04-03T01:59:25;9.33;;;3.77;;
39740;SDS011;25426;53.478;10.190;2023-04-03T02:01:56;11.33;;;3.60;;
39740;SDS011;25426;53.478;10.190;2023-04-03T02:04:27;6.80;;;3.70;;
39740;SDS011;25426;53.478;10.190;2023-04-03T02:06:58;6.07;;;3.03;;
39740;SDS011;25426;53.478;10.190;2023-04-03T02:09:29;10.57;;;3.83;;
39740;SDS011;25426;53.478;10.190;2023-04-03T02:12:00;8.67;;;3.60;;
39740;SDS011;25426;53.478;10.190;2023-04-03T02:14:31;6.90;;;3.87;;
39740;SDS011;25426;53.478;10.190;2023-04-03T02:17:03;10.10;;;3.87;;
39740;SDS011;25426;53.478;10.190;2023-04-03T02:19:38;5.30;;;3.07;;
39740;SDS011;25426;53.478;10.190;2023-04-03T02:22:09;10.10;;;3.50;;
39740;SDS011;25426;53.478;10.190;2023-04-03T02:24:40;7.53;;;3.37;;
39740;SDS011;25426;53.478;10.190;2023-04-03T02:27:11;10.63;;;3.23;;
39740;SDS011;25426;53.478;10.190;2023-04-03T02:29:43;9.83;;;3.77;;
39740;SDS011;25426;53.478;10.190;2023-04-03T02:32:14;7.63;;;4.00;;
39740;SDS011;25426;53.478;10.190;2023-04-03T02:34:45;9.97;;;4.97;;
39740;SDS011;25426;53.478;10.190;2023-04-03T02:37:17;8.40;;;4.43;;
39740;SDS011;25426;53.478;10.190;2023-04-03T02:39:50;8.20;;;4.60;;
39740;SDS011;25426;53.478;10.190;2023-04-03T02:42:21;9.63;;;3.93;;
39740;SDS011;25426;53.478;10.190;2023-04-03T02:44:52;10.17;;;4.03;;
39740;SDS011;25426;53.478;10.190;2023-04-03T02:47:23;6.37;;;3.57;;
39740;SDS011;25426;53.478;10.190;2023-04-03T02:49:54;6.47;;;3.77;;
39740;SDS011;25426;53.478;10.190;2023-04-03T02:52:25;12.23;;;3.70;;
39740;SDS011;25426;53.478;10.190;2023-04-03T02:54:59;7.43;;;3.50;;
39740;SDS011;25426;53.478;10.190;2023-04-03T02:57:30;6.77;;;3.33;;
39740;SDS011;25426;53.478;10.190;2023-04-03T03:00:01;6.80;;;3.53;;
39740;SDS011;25426;53.478;10.190;2023-04-03T03:02:33;12.10;;;3.93;;
39740;SDS011;25426;53.478;10.190;2023-04-03T03:05:04;8.77;;;3.00;;
39740;SDS011;25426;53.478;10.190;2023-04-03T03:07:35;5.90;;;2.97;;
39740;SDS011;25426;53.478;10.190;2023-04-03T03:10:06;9.60;;;3.30;;
39740;SDS011;25426;53.478;10.190;2023-04-03T03:12:38;8.70;;;3.53;;
39740;SDS011;25426;53.478;10.190;2023-04-03T03:15:11;6.70;;;3.33;;
39740;SDS011;25426;53.478;10.190;2023-04-03T03:17:42;6.17;;;2.73;;
39740;SDS011;25426;53.478;10.190;2023-04-03T03:20:14;8.87;;;3.40;;
39740;SDS011;25426;53.478;10.190;2023-04-03T03:22:45;8.20;;;3.27;;
39740;SDS011;25426;53.478;10.190;2023-04-03T03:25:16;10.60;;;3.17;;
39740;SDS011;25426;53.478;10.190;2023-04-03T03:27:47;7.07;;;3.23;;
39740;SDS011;25426;53.478;10.190;2023-04-03T03:30:18;5.47;;;3.13;;
39740;SDS011;25426;53.478;10.190;2023-04-03T03:32:49;7.83;;;3.80;;
39740;SDS011;25426;53.478;10.190;2023-04-03T03:35:20;6.37;;;3.47;;
39740;SDS011;25426;53.478;10.190;2023-04-03T03:37:51;9.43;;;3.60;;
39740;SDS011;25426;53.478;10.190;2023-04-03T03:40:22;7.03;;;3.47;;
39740;SDS011;25426;53.478;10.190;2023-04-03T03:42:53;8.43;;;3.67;;
39740;SDS011;25426;53.478;10.190;2023-04-03T03:45:24;9.53;;;3.00;;
39740;SDS011;25426;53.478;10.190;2023-04-03T03:47:55;7.17;;;3.53;;
39740;SDS011;25426;53.478;10.190;2023-04-03T03:50:26;9.83;;;4.07;;
39740;SDS011;25426;53.478;10.190;2023-04-03T03:52:58;11.30;;;4.17;;
39740;SDS011;25426;53.478;10.190;2023-04-03T03:55:28;6.80;;;3.30;;
39740;SDS011;25426;53.478;10.190;2023-04-03T03:58:01;7.17;;;3.97;;
39740;SDS011;25426;53.478;10.190;2023-04-03T04:00:34;6.27;;;3.00;;
39740;SDS011;25426;53.478;10.190;2023-04-03T04:03:05;7.23;;;3.47;;
39740;SDS011;25426;53.478;10.190;2023-04-03T04:05:36;7.40;;;3.47;;
39740;SDS011;25426;53.478;10.190;2023-04-03T04:08:07;8.53;;;3.50;;
39740;SDS011;25426;53.478;10.190;2023-04-03T04:10:38;5.70;;;3.30;;
39740;SDS011;25426;53.478;10.190;2023-04-03T04:13:11;5.53;;;2.87;;
39740;SDS011;25426;53.478;10.190;2023-04-03T04:15:42;10.47;;;3.80;;
39740;SDS011;25426;53.478;10.190;2023-04-03T04:18:13;7.17;;;2.53;;
39740;SDS011;25426;53.478;10.190;2023-04-03T04:20:47;13.33;;;3.80;;
39740;SDS011;25426;53.478;10.190;2023-04-03T04:23:20;6.90;;;3.10;;
39740;SDS011;25426;53.478;10.190;2023-04-03T04:25:53;6.33;;;3.07;;
39740;SDS011;25426;53.478;10.190;2023-04-03T04:28:24;8.87;;;3.10;;
39740;SDS011;25426;53.478;10.190;2023-04-03T04:30:58;7.37;;;3.43;;
39740;SDS011;25426;53.478;10.190;2023-04-03T04:33:31;6.77;;;3.03;;
39740;SDS011;25426;53.478;10.190;2023-04-03T04:36:04;7.33;;;3.27;;
39740;SDS011;25426;53.478;10.190;2023-04-03T04:38:36;5.40;;;2.47;;
39740;SDS011;25426;53.478;10.190;2023-04-03T04:41:08;10.50;;;3.40;;
39740;SDS011;25426;53.478;10.190;2023-04-03T04:43:40;8.60;;;3.10;;
39740;SDS011;25426;53.478;10.190;2023-04-03T04:46:13;8.17;;;3.20;;
39740;SDS011;25426;53.478;10.190;2023-04-03T04:48:49;7.10;;;3.27;;
39740;SDS011;25426;53.478;10.190;2023-04-03T04:51:22;8.13;;;3.40;;
39740;SDS011;25426;53.478;10.190;2023-04-03T04:53:53;16.03;;;3.50;;
39740;SDS011;25426;53.478;10.190;2023-04-03T04:56:24;11.17;;;3.20;;
39740;SDS011;25426;53.478;10.190;2023-04-03T04:58:58;5.87;;;3.30;;
39740;SDS011;25426;53.478;10.190;2023-04-03T05:01:30;8.63;;;3.10;;
39740;SDS011;25426;53.478;10.190;2023-04-03T05:04:07;6.87;;;3.40;;
39740;SDS011;25426;53.478;10.190;2023-04-03T05:06:39;4.37;;;3.53;;
39740;SDS011;25426;53.478;10.190;2023-04-03T05:09:15;7.80;;;3.33;;
39740;SDS011;25426;53.478;10.190;2023-04-03T05:11:47;8.23;;;3.60;;
39740;SDS011;25426;53.478;10.190;2023-04-03T05:14:20;9.90;;;3.93;;
39740;SDS011;25426;53.478;10.190;2023-04-03T05:16:51;5.57;;;3.40;;
39740;SDS011;25426;53.478;10.190;2023-04-03T05:19:24;8.17;;;3.80;;
39740;SDS011;25426;53.478;10.190;2023-04-03T05:21:55;10.53;;;4.70;;
39740;SDS011;25426;53.478;10.190;2023-04-03T05:24:26;6.13;;;3.63;;
39740;SDS011;25426;53.478;10.190;2023-04-03T05:26:58;11.17;;;3.73;;
39740;SDS011;25426;53.478;10.190;2023-04-03T05:29:30;6.90;;;3.57;;
39740;SDS011;25426;53.478;10.190;2023-04-03T05:32:03;10.10;;;4.53;;
39740;SDS011;25426;53.478;10.190;2023-04-03T05:34:34;9.30;;;4.00;;
39740;SDS011;25426;53.478;10.190;2023-04-03T05:37:07;13.37;;;4.40;;
39740;SDS011;25426;53.478;10.190;2023-04-03T05:39:38;6.23;;;3.70;;
39740;SDS011;25426;53.478;10.190;2023-04-03T05:42:11;11.67;;;3.90;;
39740;SDS011;25426;53.478;10.190;2023-04-03T05:44:43;9.13;;;3.77;;
39740;SDS011;25426;53.478;10.190;2023-04-03T05:47:16;10.00;;;3.40;;
39740;SDS011;25426;53.478;10.190;2023-04-03T05:49:48;8.50;;;4.00;;
39740;SDS011;25426;53.478;10.190;2023-04-03T05:52:29;6.87;;;4.07;;
39740;SDS011;25426;53.478;10.190;2023-04-03T05:55:04;8.57;;;4.20;;
39740;SDS011;25426;53.478;10.190;2023-04-03T05:57:38;7.03;;;4.53;;
39740;SDS011;25426;53.478;10.190;2023-04-03T06:00:11;10.43;;;4.93;;
39740;SDS011;25426;53.478;10.190;2023-04-03T06:02:48;7.27;;;4.90;;
39740;SDS011;25426;53.478;10.190;2023-04-03T06:05:24;9.43;;;5.70;;
39740;SDS011;25426;53.478;10.190;2023-04-03T06:07:55;9.53;;;5.77;;
39740;SDS011;25426;53.478;10.190;2023-04-03T06:10:27;10.65;;;6.03;;
39740;SDS011;25426;53.478;10.190;2023-04-03T06:12:57;10.52;;;6.22;;
39740;SDS011;25426;53.478;10.190;2023-04-03T06:15:28;62.00;;;10.97;;
39740;SDS011;25426;53.478;10.190;2023-04-03T06:17:59;16.63;;;5.00;;
39740;SDS011;25426;53.478;10.190;2023-04-03T06:20:31;9.40;;;4.83;;
39740;SDS011;25426;53.478;10.190;2023-04-03T06:23:02;89.90;;;14.45;;
39740;SDS011;25426;53.478;10.190;2023-04-03T06:25:34;50.43;;;7.70;;
39740;SDS011;25426;53.478;10.190;2023-04-03T06:28:05;10.53;;;4.70;;
39740;SDS011;25426;53.478;10.190;2023-04-03T06:30:37;13.67;;;4.80;;
39740;SDS011;25426;53.478;10.190;2023-04-03T06:33:08;6.00;;;3.70;;
39740;SDS011;25426;53.478;10.190;2023-04-03T06:35:42;8.77;;;3.72;;
39740;SDS011;25426;53.478;10.190;2023-04-03T06:38:13;6.18;;;3.88;;
39740;SDS011;25426;53.478;10.190;2023-04-03T06:40:44;6.93;;;3.30;;
39740;SDS011;25426;53.478;10.190;2023-04-03T06:43:16;5.53;;;3.42;;
39740;SDS011;25426;53.478;10.190;2023-04-03T06:45:46;5.85;;;3.50;;
39740;SDS011;25426;53.478;10.190;2023-04-03T06:48:17;7.32;;;3.35;;
39740;SDS011;25426;53.478;10.190;2023-04-03T06:50:48;13.48;;;4.40;;
39740;SDS011;25426;53.478;10.190;2023-04-03T06:53:20;4.45;;;3.03;;
39740;SDS011;25426;53.478;10.190;2023-04-03T06:55:51;5.18;;;2.85;;
39740;SDS011;25426;53.478;10.190;2023-04-03T06:58:22;5.75;;;2.72;;
39740;SDS011;25426;53.478;10.190;2023-04-03T07:00:53;5.20;;;2.00;;
39740;SDS011;25426;53.478;10.190;2023-04-03T07:03:24;8.57;;;2.88;;
39740;SDS011;25426;53.478;10.190;2023-04-03T07:05:55;4.55;;;2.60;;
39740;SDS011;25426;53.478;10.190;2023-04-03T07:08:26;9.93;;;2.60;;
39740;SDS011;25426;53.478;10.190;2023-04-03T07:10:57;5.75;;;2.50;;
39740;SDS011;25426;53.478;10.190;2023-04-03T07:13:28;5.38;;;2.17;;
39740;SDS011;25426;53.478;10.190;2023-04-03T07:15:59;5.00;;;2.83;;
39740;SDS011;25426;53.478;10.190;2023-04-03T07:18:31;7.90;;;3.25;;
39740;SDS011;25426;53.478;10.190;2023-04-03T07:21:03;6.03;;;2.28;;
39740;SDS011;25426;53.478;10.190;2023-04-03T07:23:34;7.22;;;2.00;;
39740;SDS011;25426;53.478;10.190;2023-04-03T07:26:05;6.30;;;2.20;;
39740;SDS011;25426;53.478;10.190;2023-04-03T07:28:37;3.97;;;2.00;;
39740;SDS011;25426;53.478;10.190;2023-04-03T07:31:11;6.30;;;2.55;;
39740;SDS011;25426;53.478;10.190;2023-04-03T07:33:43;3.88;;;2.20;;
39740;SDS011;25426;53.478;10.190;2023-04-03T07:36:16;4.57;;;1.90;;
39740;SDS011;25426;53.478;10.190;2023-04-03T07:38:51;7.47;;;2.10;;
39740;SDS011;25426;53.478;10.190;2023-04-03T07:41:22;5.68;;;1.80;;
39740;SDS011;25426;53.478;10.190;2023-04-03T07:43:53;4.43;;;1.77;;
39740;SDS011;25426;53.478;10.190;2023-04-03T07:46:26;4.75;;;2.13;;
39740;SDS011;25426;53.478;10.190;2023-04-03T07:48:57;4.00;;;2.10;;
39740;SDS011;25426;53.478;10.190;2023-04-03T07:51:28;6.03;;;1.92;;
39740;SDS011;25426;53.478;10.190;2023-04-03T07:54:01;3.60;;;1.60;;
39740;SDS011;25426;53.478;10.190;2023-04-03T07:56:32;6.47;;;2.22;;
39740;SDS011;25426;53.478;10.190;2023-04-03T07:59:03;5.78;;;1.80;;
39740;SDS011;25426;53.478;10.190;2023-04-03T08:01:34;3.08;;;1.70;;
39740;SDS011;25426;53.478;10.190;2023-04-03T08:04:05;4.65;;;2.13;;
39740;SDS011;25426;53.478;10.190;2023-04-03T08:06:36;4.28;;;1.75;;
39740;SDS011;25426;53.478;10.190;2023-04-03T08:09:07;2.78;;;1.40;;
39740;SDS011;25426;53.478;10.190;2023-04-03T08:11:39;2.90;;;1.55;;
39740;SDS011;25426;53.478;10.190;2023-04-03T08:14:10;2.50;;;1.50;;
39740;SDS011;25426;53.478;10.190;2023-04-03T08:16:46;4.38;;;1.80;;
39740;SDS011;25426;53.478;10.190;2023-04-03T08:19:18;5.95;;;1.63;;
39740;SDS011;25426;53.478;10.190;2023-04-03T08:21:49;4.22;;;1.63;;
39740;SDS011;25426;53.478;10.190;2023-04-03T08:24:21;3.83;;;1.67;;
39740;SDS011;25426;53.478;10.190;2023-04-03T08:26:52;3.03;;;1.60;;
39740;SDS011;25426;53.478;10.190;2023-04-03T08:29:24;3.85;;;1.83;;
39740;SDS011;25426;53.478;10.190;2023-04-03T08:31:55;4.05;;;1.60;;
39740;SDS011;25426;53.478;10.190;2023-04-03T08:34:26;3.47;;;1.38;;
39740;SDS011;25426;53.478;10.190;2023-04-03T08:36:57;2.60;;;1.40;;
39740;SDS011;25426;53.478;10.190;2023-04-03T08:39:28;3.13;;;1.50;;
39740;SDS011;25426;53.478;10.190;2023-04-03T08:42:00;2.88;;;1.52;;
39740;SDS011;25426;53.478;10.190;2023-04-03T08:44:52;9.63;;;1.42;;
39740;SDS011;25426;53.478;10.190;2023-04-03T08:47:44;2.85;;;1.20;;
39740;SDS011;25426;53.478;10.190;2023-04-03T08:50:28;3.30;;;1.70;;
39740;SDS011;25426;53.478;10.190;2023-04-03T08:53:10;1.88;;;1.30;;
39740;SDS011;25426;53.478;10.190;2023-04-03T08:55:57;2.47;;;1.05;;
39740;SDS011;25426;53.478;10.190;2023-04-03T08:58:29;2.63;;;1.60;;
39740;SDS011;25426;53.478;10.190;2023-04-03T09:01:26;1.98;;;1.02;;
39740;SDS011;25426;53.478;10.190;2023-04-03T09:04:11;4.22;;;1.30;;
39740;SDS011;25426;53.478;10.190;2023-04-03T09:06:52;3.00;;;1.40;;
39740;SDS011;25426;53.478;10.190;2023-04-03T09:09:40;3.20;;;1.20;;
39740;SDS011;25426;53.478;10.190;2023-04-03T09:12:15;1.40;;;0.95;;
39740;SDS011;25426;53.478;10.190;2023-04-03T09:17:53;2.83;;;1.30;;
39740;SDS011;25426;53.478;10.190;2023-04-03T09:20:59;1.73;;;1.10;;
39740;SDS011;25426;53.478;10.190;2023-04-03T09:23:55;2.20;;;1.15;;
39740;SDS011;25426;53.478;10.190;2023-04-03T09:26:30;4.90;;;1.17;;
39740;SDS011;25426;53.478;10.190;2023-04-03T09:29:22;2.53;;;1.30;;
39740;SDS011;25426;53.478;10.190;2023-04-03T09:31:58;2.58;;;1.10;;
39740;SDS011;25426;53.478;10.190;2023-04-03T09:34:32;2.97;;;1.67;;
39740;SDS011;25426;53.478;10.190;2023-04-03T09:37:06;3.55;;;1.23;;
39740;SDS011;25426;53.478;10.190;2023-04-03T09:39:48;3.03;;;1.30;;
39740;SDS011;25426;53.478;10.190;2023-04-03T09:42:24;2.08;;;1.02;;
39740;SDS011;25426;53.478;10.190;2023-04-03T09:44:58;2.40;;;1.13;;
39740;SDS011;25426;53.478;10.190;2023-04-03T09:53:37;2.13;;;1.10;;
39740;SDS011;25426;53.478;10.190;2023-04-03T09:58:47;2.38;;;1.50;;
39740;SDS011;25426;53.478;10.190;2023-04-03T10:04:14;2.40;;;1.55;;
39740;SDS011;25426;53.478;10.190;2023-04-03T10:06:49;3.10;;;1.27;;
39740;SDS011;25426;53.478;10.190;2023-04-03T10:12:08;3.08;;;1.20;;
39740;SDS011;25426;53.478;10.190;2023-04-03T10:23:14;2.80;;;1.08;;
39740;SDS011;25426;53.478;10.190;2023-04-03T10:26:22;3.60;;;1.38;;
39740;SDS011;25426;53.478;10.190;2023-04-03T10:32:35;2.42;;;1.00;;
39740;SDS011;25426;53.478;10.190;2023-04-03T10:36:02;3.92;;;1.33;;
39740;SDS011;25426;53.478;10.190;2023-04-03T10:39:25;2.60;;;1.50;;
39740;SDS011;25426;53.478;10.190;2023-04-03T10:42:35;2.60;;;1.30;;
39740;SDS011;25426;53.478;10.190;2023-04-03T10:45:24;3.85;;;1.52;;
39740;SDS011;25426;53.478;10.190;2023-04-03T10:51:41;2.90;;;1.83;;
39740;SDS011;25426;53.478;10.190;2023-04-03T10:55:14;4.00;;;1.95;;
39740;SDS011;25426;53.478;10.190;2023-04-03T10:57:48;4.43;;;1.48;;
39740;SDS011;25426;53.478;10.190;2023-04-03T11:00:21;2.08;;;1.30;;
39740;SDS011;25426;53.478;10.190;2023-04-03T11:03:25;4.05;;;1.13;;
39740;SDS011;25426;53.478;10.190;2023-04-03T11:06:05;4.70;;;1.92;;
39740;SDS011;25426;53.478;10.190;2023-04-03T11:08:44;3.67;;;1.50;;
39740;SDS011;25426;53.478;10.190;2023-04-03T11:11:37;3.20;;;1.20;;
39740;SDS011;25426;53.478;10.190;2023-04-03T11:14:15;4.85;;;1.40;;
39740;SDS011;25426;53.478;10.190;2023-04-03T11:19:57;3.10;;;1.55;;
39740;SDS011;25426;53.478;10.190;2023-04-03T11:22:40;2.88;;;1.40;;
39740;SDS011;25426;53.478;10.190;2023-04-03T11:25:17;3.60;;;1.40;;
39740;SDS011;25426;53.478;10.190;2023-04-03T11:27:58;3.92;;;1.58;;
39740;SDS011;25426;53.478;10.190;2023-04-03T11:30:40;4.68;;;1.40;;
39740;SDS011;25426;53.478;10.190;2023-04-03T11:36:56;4.28;;;1.42;;
39740;SDS011;25426;53.478;10.190;2023-04-03T11:39:31;5.38;;;1.60;;
39740;SDS011;25426;53.478;10.190;2023-04-03T11:42:14;4.85;;;1.70;;
39740;SDS011;25426;53.478;10.190;2023-04-03T11:47:54;1.92;;;1.02;;
39740;SDS011;25426;53.478;10.190;2023-04-03T11:55:41;7.80;;;1.35;;
39740;SDS011;25426;53.478;10.190;2023-04-03T12:01:07;5.65;;;1.35;;
39740;SDS011;25426;53.478;10.190;2023-04-03T12:08:47;6.47;;;1.55;;
39740;SDS011;25426;53.478;10.190;2023-04-03T12:11:29;4.30;;;1.50;;
39740;SDS011;25426;53.478;10.190;2023-04-03T12:14:03;2.78;;;1.35;;
39740;SDS011;25426;53.478;10.190;2023-04-03T12:24:23;2.05;;;1.30;;
39740;SDS011;25426;53.478;10.190;2023-04-03T12:27:09;4.32;;;1.20;;
39740;SDS011;25426;53.478;10.190;2023-04-03T12:35:29;4.80;;;1.60;;
39740;SDS011;25426;53.478;10.190;2023-04-03T12:41:26;3.13;;;1.50;;
39740;SDS011;25426;53.478;10.190;2023-04-03T12:44:37;2.95;;;1.50;;
39740;SDS011;25426;53.478;10.190;2023-04-03T12:50:24;4.18;;;1.45;;
39740;SDS011;25426;53.478;10.190;2023-04-03T12:53:06;1.95;;;1.30;;
39740;SDS011;25426;53.478;10.190;2023-04-03T12:55:56;4.03;;;1.52;;
39740;SDS011;25426;53.478;10.190;2023-04-03T12:58:48;2.25;;;1.50;;
39740;SDS011;25426;53.478;10.190;2023-04-03T13:01:25;2.05;;;1.30;;
39740;SDS011;25426;53.478;10.190;2023-04-03T13:03:57;1.45;;;1.00;;
39740;SDS011;25426;53.478;10.190;2023-04-03T13:06:32;3.97;;;1.40;;
39740;SDS011;25426;53.478;10.190;2023-04-03T13:09:20;1.50;;;1.00;;
39740;SDS011;25426;53.478;10.190;2023-04-03T13:12:14;2.13;;;1.00;;
39740;SDS011;25426;53.478;10.190;2023-04-03T13:14:54;6.85;;;1.45;;
39740;SDS011;25426;53.478;10.190;2023-04-03T13:17:30;2.33;;;1.20;;
39740;SDS011;25426;53.478;10.190;2023-04-03T13:20:12;6.05;;;1.45;;
39740;SDS011;25426;53.478;10.190;2023-04-03T13:23:08;2.88;;;1.40;;
39740;SDS011;25426;53.478;10.190;2023-04-03T13:25:42;3.35;;;1.65;;
39740;SDS011;25426;53.478;10.190;2023-04-03T13:28:15;3.03;;;1.30;;
39740;SDS011;25426;53.478;10.190;2023-04-03T13:30:56;2.63;;;1.42;;
39740;SDS011;25426;53.478;10.190;2023-04-03T13:33:55;3.92;;;1.75;;
39740;SDS011;25426;53.478;10.190;2023-04-03T13:36:37;3.10;;;1.65;;
39740;SDS011;25426;53.478;10.190;2023-04-03T13:42:16;3.15;;;0.95;;
39740;SDS011;25426;53.478;10.190;2023-04-03T13:51:21;2.17;;;1.00;;
39740;SDS011;25426;53.478;10.190;2023-04-03T13:54:01;1.95;;;1.00;;
39740;SDS011;25426;53.478;10.190;2023-04-03T13:56:55;3.28;;;1.15;;
39740;SDS011;25426;53.478;10.190;2023-04-03T13:59:30;2.85;;;0.95;;
39740;SDS011;25426;53.478;10.190;2023-04-03T14:05:02;2.70;;;1.25;;
39740;SDS011;25426;53.478;10.190;2023-04-03T14:07:35;5.00;;;1.77;;
39740;SDS011;25426;53.478;10.190;2023-04-03T14:10:07;5.38;;;1.20;;
39740;SDS011;25426;53.478;10.190;2023-04-03T14:12:39;3.90;;;1.45;;
39740;SDS011;25426;53.478;10.190;2023-04-03T14:17:57;3.28;;;1.38;;
39740;SDS011;25426;53.478;10.190;2023-04-03T14:20:28;4.15;;;1.10;;
39740;SDS011;25426;53.478;10.190;2023-04-03T14:22:59;2.78;;;1.10;;
39740;SDS011;25426;53.478;10.190;2023-04-03T14:25:30;2.40;;;1.13;;
39740;SDS011;25426;53.478;10.190;2023-04-03T14:28:06;1.90;;;1.00;;
39740;SDS011;25426;53.478;10.190;2023-04-03T14:30:51;4.45;;;1.50;;
39740;SDS011;25426;53.478;10.190;2023-04-03T14:33:22;2.38;;;1.35;;
39740;SDS011;25426;53.478;10.190;2023-04-03T14:35:53;2.30;;;0.88;;
39740;SDS011;25426;53.478;10.190;2023-04-03T14:38:27;2.58;;;1.15;;
39740;SDS011;25426;53.478;10.190;2023-04-03T14:41:00;3.45;;;1.33;;
39740;SDS011;25426;53.478;10.190;2023-04-03T14:43:31;2.42;;;1.33;;
39740;SDS011;25426;53.478;10.190;2023-04-03T14:46:02;2.78;;;1.30;;
39740;SDS011;25426;53.478;10.190;2023-04-03T14:48:33;2.38;;;1.40;;
39740;SDS011;25426;53.478;10.190;2023-04-03T14:51:04;3.15;;;1.35;;
39740;SDS011;25426;53.478;10.190;2023-04-03T14:53:35;2.65;;;1.15;;
39740;SDS011;25426;53.478;10.190;2023-04-03T14:56:21;3.75;;;1.38;;
39740;SDS011;25426;53.478;10.190;2023-04-03T14:58:59;4.60;;;1.23;;
39740;SDS011;25426;53.478;10.190;2023-04-03T15:01:31;3.45;;;1.70;;
39740;SDS011;25426;53.478;10.190;2023-04-03T15:04:04;2.03;;;1.13;;
39740;SDS011;25426;53.478;10.190;2023-04-03T15:06:43;1.77;;;1.02;;
39740;SDS011;25426;53.478;10.190;2023-04-03T15:09:22;2.67;;;1.27;;
39740;SDS011;25426;53.478;10.190;2023-04-03T15:11:57;1.83;;;1.10;;
39740;SDS011;25426;53.478;10.190;2023-04-03T15:14:28;3.67;;;1.63;;
39740;SDS011;25426;53.478;10.190;2023-04-03T15:16:59;2.10;;;0.80;;
39740;SDS011;25426;53.478;10.190;2023-04-03T15:19:32;3.88;;;1.20;;
39740;SDS011;25426;53.478;10.190;2023-04-03T15:22:11;2.42;;;1.13;;
39740;SDS011;25426;53.478;10.190;2023-04-03T15:24:49;3.67;;;1.40;;
39740;SDS011;25426;53.478;10.190;2023-04-03T15:27:20;2.35;;;1.00;;
39740;SDS011;25426;53.478;10.190;2023-04-03T15:29:51;1.58;;;1.10;;
39740;SDS011;25426;53.478;10.190;2023-04-03T15:32:22;3.10;;;1.23;;
39740;SDS011;25426;53.478;10.190;2023-04-03T15:34:53;3.55;;;1.63;;
39740;SDS011;25426;53.478;10.190;2023-04-03T15:37:24;1.98;;;1.13;;
39740;SDS011;25426;53.478;10.190;2023-04-03T15:39:55;3.28;;;1.30;;
39740;SDS011;25426;53.478;10.190;2023-04-03T15:42:28;2.25;;;1.40;;
39740;SDS011;25426;53.478;10.190;2023-04-03T15:44:58;4.85;;;1.60;;
39740;SDS011;25426;53.478;10.190;2023-04-03T15:47:30;4.15;;;1.50;;
39740;SDS011;25426;53.478;10.190;2023-04-03T15:50:01;1.63;;;1.50;;
39740;SDS011;25426;53.478;10.190;2023-04-03T15:52:32;3.83;;;1.65;;
39740;SDS011;25426;53.478;10.190;2023-04-03T15:55:03;2.33;;;1.17;;
39740;SDS011;25426;53.478;10.190;2023-04-03T15:57:36;2.42;;;1.63;;
39740;SDS011;25426;53.478;10.190;2023-04-03T16:00:07;3.08;;;1.70;;
39740;SDS011;25426;53.478;10.190;2023-04-03T16:02:39;3.80;;;2.85;;
39740;SDS011;25426;53.478;10.190;2023-04-03T16:05:10;4.80;;;2.05;;
39740;SDS011;25426;53.478;10.190;2023-04-03T16:07:44;5.50;;;3.10;;
39740;SDS011;25426;53.478;10.190;2023-04-03T16:10:17;5.07;;;4.20;;
39740;SDS011;25426;53.478;10.190;2023-04-03T16:12:48;9.80;;;7.68;;
39740;SDS011;25426;53.478;10.190;2023-04-03T16:15:19;6.75;;;5.40;;
39740;SDS011;25426;53.478;10.190;2023-04-03T16:17:50;9.65;;;5.78;;
39740;SDS011;25426;53.478;10.190;2023-04-03T16:20:21;4.95;;;1.88;;
39740;SDS011;25426;53.478;10.190;2023-04-03T16:22:52;5.93;;;2.63;;
39740;SDS011;25426;53.478;10.190;2023-04-03T16:25:24;8.10;;;4.20;;
39740;SDS011;25426;53.478;10.190;2023-04-03T16:27:55;23.30;;;11.63;;
39740;SDS011;25426;53.478;10.190;2023-04-03T16:30:26;9.68;;;4.03;;
39740;SDS011;25426;53.478;10.190;2023-04-03T16:32:58;4.47;;;2.78;;
39740;SDS011;25426;53.478;10.190;2023-04-03T16:35:29;31.58;;;15.82;;
39740;SDS011;25426;53.478;10.190;2023-04-03T16:38:01;8.48;;;3.83;;
39740;SDS011;25426;53.478;10.190;2023-04-03T16:40:33;7.25;;;5.45;;
39740;SDS011;25426;53.478;10.190;2023-04-03T16:43:04;8.23;;;7.32;;
39740;SDS011;25426;53.478;10.190;2023-04-03T16:45:35;3.90;;;2.50;;
39740;SDS011;25426;53.478;10.190;2023-04-03T16:48:07;4.90;;;2.47;;
39740;SDS011;25426;53.478;10.190;2023-04-03T16:50:38;6.45;;;5.32;;
39740;SDS011;25426;53.478;10.190;2023-04-03T16:53:09;4.65;;;1.95;;
39740;SDS011;25426;53.478;10.190;2023-04-03T16:55:40;5.53;;;1.80;;
39740;SDS011;25426;53.478;10.190;2023-04-03T16:58:11;3.95;;;1.50;;
39740;SDS011;25426;53.478;10.190;2023-04-03T17:00:42;5.68;;;1.90;;